createdAt,value
2019-03-26T00:00:15.088Z,1023.94
2019-03-26T00:01:15.049Z,1023.91
2019-03-26T00:02:15.045Z,1023.90
2019-03-26T00:03:15.027Z,1023.91
2019-03-26T00:04:15.018Z,1023.88
2019-03-26T00:05:15.008Z,1023.92
2019-03-26T00:06:15.014Z,1023.93
2019-03-26T00:07:14.986Z,1023.91
2019-03-26T00:08:14.976Z,1023.92
2019-03-26T00:09:14.971Z,1023.95
2019-03-26T00:10:14.956Z,1023.95
2019-03-26T00:11:14.961Z,1023.90
2019-03-26T00:12:14.931Z,1023.89
2019-03-26T00:13:14.918Z,1023.90
2019-03-26T00:14:14.908Z,1023.91
2019-03-26T00:15:14.898Z,1023.87
2019-03-26T00:16:14.937Z,1023.88
2019-03-26T00:17:14.878Z,1023.88
2019-03-26T00:18:14.869Z,1023.86
2019-03-26T00:19:14.851Z,1023.89
2019-03-26T00:20:14.846Z,1023.90
2019-03-26T00:21:14.849Z,1023.91
2019-03-26T00:22:14.819Z,1023.90
2019-03-26T00:23:14.819Z,1023.88
2019-03-26T00:24:14.800Z,1023.89
2019-03-26T00:25:14.796Z,1023.95
2019-03-26T00:26:14.802Z,1023.95
2019-03-26T00:27:14.768Z,1023.94
2019-03-26T00:28:14.752Z,1023.96
2019-03-26T00:29:14.744Z,1024.00
2019-03-26T00:30:14.734Z,1023.99
2019-03-26T00:31:14.754Z,1024.04
2019-03-26T00:32:14.710Z,1023.99
2019-03-26T00:33:14.700Z,1023.98
2019-03-26T00:34:19.552Z,1023.99
2019-03-26T00:35:14.681Z,1023.97
2019-03-26T00:36:14.666Z,1024.00
2019-03-26T00:37:14.684Z,1023.99
2019-03-26T00:38:14.656Z,1023.99
2019-03-26T00:39:14.644Z,1024.02
2019-03-26T00:40:14.632Z,1024.01
2019-03-26T00:41:14.615Z,1023.97
2019-03-26T00:42:14.628Z,1024.01
2019-03-26T00:43:14.591Z,1024.00
2019-03-26T00:44:14.579Z,1023.98
2019-03-26T00:45:14.575Z,1023.97
2019-03-26T00:46:14.566Z,1023.98
2019-03-26T00:47:14.577Z,1023.94
2019-03-26T00:48:14.550Z,1023.99
2019-03-26T00:49:14.528Z,1023.97
2019-03-26T00:50:14.520Z,1024.00
2019-03-26T00:51:14.505Z,1024.01
2019-03-26T00:52:14.550Z,1023.99
2019-03-26T00:53:14.486Z,1023.96
2019-03-26T00:54:14.474Z,1023.98
2019-03-26T00:55:22.651Z,1023.98
2019-03-26T00:56:15.451Z,1024.00
2019-03-26T00:57:14.440Z,1023.98
2019-03-26T00:58:14.480Z,1024.01
2019-03-26T00:59:14.419Z,1024.01
2019-03-26T01:00:14.408Z,1023.99
2019-03-26T01:01:14.401Z,1024.03
2019-03-26T01:02:14.396Z,1024.00
2019-03-26T01:03:14.392Z,1024.04
2019-03-26T01:04:14.367Z,1023.97
2019-03-26T01:05:14.357Z,1024.00
2019-03-26T01:06:14.344Z,1024.04
2019-03-26T01:07:14.334Z,1024.03
2019-03-26T01:08:14.343Z,1024.05
2019-03-26T01:09:14.307Z,1024.02
2019-03-26T01:10:14.314Z,1024.11
2019-03-26T01:11:14.299Z,1024.11
2019-03-26T01:12:14.277Z,1024.06
2019-03-26T01:13:14.296Z,1024.02
2019-03-26T01:14:14.253Z,1024.08
2019-03-26T01:15:14.251Z,1024.03
2019-03-26T01:16:14.247Z,1024.03
2019-03-26T01:17:14.222Z,1024.05
2019-03-26T01:18:14.219Z,1024.04
2019-03-26T01:19:14.222Z,1024.05
2019-03-26T01:20:14.193Z,1024.05
2019-03-26T01:21:14.184Z,1024.06
2019-03-26T01:22:14.185Z,1024.08
2019-03-26T01:23:14.161Z,1024.08
2019-03-26T01:24:14.180Z,1024.07
2019-03-26T01:25:14.139Z,1024.06
2019-03-26T01:26:14.132Z,1024.11
2019-03-26T01:27:14.124Z,1024.17
2019-03-26T01:28:14.103Z,1024.17
2019-03-26T01:29:14.130Z,1024.09
2019-03-26T01:30:14.084Z,1024.17
2019-03-26T01:31:14.068Z,1024.14
2019-03-26T01:32:14.059Z,1024.11
2019-03-26T01:33:14.056Z,1024.14
2019-03-26T01:34:14.058Z,1024.08
2019-03-26T01:35:14.027Z,1024.12
2019-03-26T01:36:14.014Z,1024.16
2019-03-26T01:37:14.004Z,1024.11
2019-03-26T01:38:14.002Z,1024.14
2019-03-26T01:39:13.985Z,1024.14
2019-03-26T01:40:13.990Z,1024.12
2019-03-26T01:41:13.962Z,1024.17
2019-03-26T01:42:13.949Z,1024.14
2019-03-26T01:43:13.936Z,1024.17
2019-03-26T01:44:13.932Z,1024.20
2019-03-26T01:45:13.946Z,1024.24
2019-03-26T01:46:13.913Z,1024.16
2019-03-26T01:47:13.894Z,1024.24
2019-03-26T01:48:13.892Z,1024.27
2019-03-26T01:49:13.872Z,1024.22
2019-03-26T01:50:13.986Z,1024.24
2019-03-26T01:51:13.857Z,1024.22
2019-03-26T01:52:13.854Z,1024.21
2019-03-26T01:53:13.840Z,1024.20
2019-03-26T01:54:13.833Z,1024.20
2019-03-26T01:55:13.809Z,1024.23
2019-03-26T01:56:13.816Z,1024.19
2019-03-26T01:57:13.791Z,1024.22
2019-03-26T01:58:13.773Z,1024.24
2019-03-26T01:59:13.774Z,1024.23
2019-03-26T02:00:13.754Z,1024.27
2019-03-26T02:01:13.763Z,1024.31
2019-03-26T02:02:13.732Z,1024.31
2019-03-26T02:03:13.719Z,1024.33
2019-03-26T02:04:13.734Z,1024.35
2019-03-26T02:05:13.712Z,1024.38
2019-03-26T02:06:13.708Z,1024.32
2019-03-26T02:07:13.676Z,1024.39
2019-03-26T02:08:13.664Z,1024.38
2019-03-26T02:09:13.656Z,1024.39
2019-03-26T02:10:13.655Z,1024.36
2019-03-26T02:11:13.653Z,1024.37
2019-03-26T02:12:13.624Z,1024.42
2019-03-26T02:13:13.631Z,1024.45
2019-03-26T02:14:13.601Z,1024.46
2019-03-26T02:15:13.590Z,1024.45
2019-03-26T02:16:13.604Z,1024.41
2019-03-26T02:17:13.574Z,1024.44
2019-03-26T02:18:13.572Z,1024.35
2019-03-26T02:19:13.564Z,1024.45
2019-03-26T02:20:13.542Z,1024.40
2019-03-26T02:21:13.533Z,1024.45
2019-03-26T02:22:13.540Z,1024.41
2019-03-26T02:23:13.506Z,1024.41
2019-03-26T02:24:13.507Z,1024.43
2019-03-26T02:25:13.491Z,1024.43
2019-03-26T02:26:13.497Z,1024.40
2019-03-26T02:27:13.465Z,1024.41
2019-03-26T02:28:13.454Z,1024.44
2019-03-26T02:29:13.449Z,1024.46
2019-03-26T02:30:13.442Z,1024.42
2019-03-26T02:31:13.458Z,1024.45
2019-03-26T02:32:13.414Z,1024.42
2019-03-26T02:33:13.398Z,1024.37
2019-03-26T02:34:13.391Z,1024.36
2019-03-26T02:35:18.388Z,1024.39
2019-03-26T02:36:14.398Z,1024.45
2019-03-26T02:37:13.355Z,1024.45
2019-03-26T02:38:13.346Z,1024.48
2019-03-26T02:39:13.331Z,1024.46
2019-03-26T02:40:13.321Z,1024.49
2019-03-26T02:41:13.325Z,1024.54
2019-03-26T02:42:13.401Z,1024.53
2019-03-26T02:43:13.293Z,1024.49
2019-03-26T02:44:13.277Z,1024.52
2019-03-26T02:45:13.272Z,1024.47
2019-03-26T02:46:13.254Z,1024.47
2019-03-26T02:47:13.387Z,1024.50
2019-03-26T02:48:13.231Z,1024.50
2019-03-26T02:49:13.231Z,1024.48
2019-03-26T02:50:13.211Z,1024.43
2019-03-26T02:51:13.210Z,1024.45
2019-03-26T02:52:13.210Z,1024.50
2019-03-26T02:53:13.216Z,1024.48
2019-03-26T02:54:13.169Z,1024.47
2019-03-26T02:55:13.157Z,1024.49
2019-03-26T02:56:13.145Z,1024.47
2019-03-26T02:57:13.151Z,1024.49
2019-03-26T02:58:13.136Z,1024.49
2019-03-26T02:59:13.126Z,1024.51
2019-03-26T03:00:13.101Z,1024.45
2019-03-26T03:01:13.097Z,1024.48
2019-03-26T03:02:13.102Z,1024.51
2019-03-26T03:03:13.066Z,1024.46
2019-03-26T03:04:13.067Z,1024.45
2019-03-26T03:05:13.052Z,1024.49
2019-03-26T03:06:13.035Z,1024.50
2019-03-26T03:07:13.024Z,1024.45
2019-03-26T03:08:13.034Z,1024.49
2019-03-26T03:09:21.559Z,1024.42
2019-03-26T03:10:20.530Z,1024.46
2019-03-26T03:11:12.982Z,1024.45
2019-03-26T03:12:12.978Z,1024.42
2019-03-26T03:13:21.729Z,1024.43
2019-03-26T03:14:12.948Z,1024.44
2019-03-26T03:15:20.477Z,1024.46
2019-03-26T03:16:12.928Z,1024.53
2019-03-26T03:17:20.461Z,1024.48
2019-03-26T03:18:12.930Z,1024.54
2019-03-26T03:19:15.811Z,1024.52
2019-03-26T03:20:12.882Z,1024.52
2019-03-26T03:21:12.879Z,1024.56
2019-03-26T03:22:12.866Z,1024.58
2019-03-26T03:23:12.856Z,1024.51
2019-03-26T03:24:12.859Z,1024.53
2019-03-26T03:25:12.833Z,1024.55
2019-03-26T03:26:12.819Z,1024.56
2019-03-26T03:27:12.831Z,1024.60
2019-03-26T03:28:12.823Z,1024.60
2019-03-26T03:29:12.809Z,1024.62
2019-03-26T03:30:12.774Z,1024.61
2019-03-26T03:31:12.768Z,1024.60
2019-03-26T03:32:12.755Z,1024.62
2019-03-26T03:33:12.743Z,1024.57
2019-03-26T03:34:12.779Z,1024.57
2019-03-26T03:35:12.744Z,1024.54
2019-03-26T03:36:12.723Z,1024.53
2019-03-26T03:37:12.699Z,1024.55
2019-03-26T03:38:12.695Z,1024.53
2019-03-26T03:39:12.706Z,1024.61
2019-03-26T03:40:12.676Z,1024.59
2019-03-26T03:41:12.655Z,1024.59
2019-03-26T03:42:12.653Z,1024.59
2019-03-26T03:43:12.644Z,1024.63
2019-03-26T03:44:12.645Z,1024.67
2019-03-26T03:45:12.620Z,1024.70
2019-03-26T03:46:12.618Z,1024.72
2019-03-26T03:47:12.598Z,1024.69
2019-03-26T03:48:12.581Z,1024.67
2019-03-26T03:49:12.593Z,1024.68
2019-03-26T03:50:12.561Z,1024.69
2019-03-26T03:51:12.558Z,1024.67
2019-03-26T03:52:12.539Z,1024.73
2019-03-26T03:53:12.526Z,1024.75
2019-03-26T03:54:12.520Z,1024.78
2019-03-26T03:55:12.527Z,1024.72
2019-03-26T03:56:12.496Z,1024.71
2019-03-26T03:57:12.485Z,1024.76
2019-03-26T03:58:12.482Z,1024.72
2019-03-26T03:59:12.477Z,1024.74
2019-03-26T04:00:12.472Z,1024.77
2019-03-26T04:01:12.443Z,1024.74
2019-03-26T04:02:12.431Z,1024.76
2019-03-26T04:03:12.420Z,1024.71
2019-03-26T04:04:12.422Z,1024.76
2019-03-26T04:05:12.426Z,1024.75
2019-03-26T04:06:12.389Z,1024.77
2019-03-26T04:07:12.381Z,1024.81
2019-03-26T04:08:12.376Z,1024.79
2019-03-26T04:09:12.353Z,1024.77
2019-03-26T04:10:12.361Z,1024.76
2019-03-26T04:11:12.339Z,1024.79
2019-03-26T04:12:12.330Z,1024.79
2019-03-26T04:13:12.319Z,1024.84
2019-03-26T04:14:12.303Z,1024.83
2019-03-26T04:15:12.316Z,1024.87
2019-03-26T04:16:12.279Z,1024.88
2019-03-26T04:17:12.267Z,1024.88
2019-03-26T04:18:12.260Z,1024.88
2019-03-26T04:19:12.289Z,1024.84
2019-03-26T04:20:12.241Z,1024.86
2019-03-26T04:21:12.245Z,1024.80
2019-03-26T04:22:12.218Z,1024.78
2019-03-26T04:23:12.207Z,1024.84
2019-03-26T04:24:12.200Z,1024.76
2019-03-26T04:25:12.185Z,1024.79
2019-03-26T04:26:12.207Z,1024.74
2019-03-26T04:27:12.168Z,1024.79
2019-03-26T04:28:12.150Z,1024.86
2019-03-26T04:29:12.141Z,1024.84
2019-03-26T04:30:12.161Z,1024.84
2019-03-26T04:31:12.146Z,1024.83
2019-03-26T04:32:12.120Z,1024.90
2019-03-26T04:33:12.102Z,1024.84
2019-03-26T04:34:12.084Z,1024.79
2019-03-26T04:35:12.079Z,1024.81
2019-03-26T04:36:24.898Z,1024.79
2019-03-26T04:37:13.053Z,1024.83
2019-03-26T04:38:12.050Z,1024.82
2019-03-26T04:39:12.034Z,1024.78
2019-03-26T04:40:12.062Z,1024.72
2019-03-26T04:41:12.010Z,1024.70
2019-03-26T04:42:12.014Z,1024.68
2019-03-26T04:43:12.000Z,1024.67
2019-03-26T04:44:11.974Z,1024.71
2019-03-26T04:45:11.965Z,1024.68
2019-03-26T04:46:11.959Z,1024.71
2019-03-26T04:47:11.966Z,1024.77
2019-03-26T04:48:11.949Z,1024.79
2019-03-26T04:49:19.457Z,1024.81
2019-03-26T04:50:19.448Z,1024.83
2019-03-26T04:51:19.435Z,1024.76
2019-03-26T04:52:20.845Z,1024.74
2019-03-26T04:53:19.414Z,1024.76
2019-03-26T04:54:19.401Z,1024.79
2019-03-26T04:55:20.406Z,1024.79
2019-03-26T04:56:19.393Z,1024.81
2019-03-26T04:57:20.446Z,1024.83
2019-03-26T04:58:19.372Z,1024.87
2019-03-26T04:59:19.351Z,1024.86
2019-03-26T05:00:19.349Z,1024.82
2019-03-26T05:01:19.331Z,1024.86
2019-03-26T05:02:20.543Z,1024.84
2019-03-26T05:03:19.301Z,1024.85
2019-03-26T05:04:19.320Z,1024.87
2019-03-26T05:05:19.287Z,1024.88
2019-03-26T05:06:19.307Z,1024.92
2019-03-26T05:07:19.269Z,1024.89
2019-03-26T05:08:20.664Z,1024.85
2019-03-26T05:09:19.253Z,1024.87
2019-03-26T05:10:19.227Z,1024.89
2019-03-26T05:11:20.740Z,1024.90
2019-03-26T05:12:19.213Z,1024.89
2019-03-26T05:13:20.288Z,1024.91
2019-03-26T05:14:19.184Z,1024.94
2019-03-26T05:15:19.173Z,1024.98
2019-03-26T05:16:11.625Z,1024.90
2019-03-26T05:17:11.614Z,1024.92
2019-03-26T05:18:11.604Z,1024.94
2019-03-26T05:19:11.611Z,1024.91
2019-03-26T05:20:11.584Z,1024.87
2019-03-26T05:21:11.573Z,1024.82
2019-03-26T05:22:23.505Z,1024.82
2019-03-26T05:23:12.549Z,1024.80
2019-03-26T05:24:11.558Z,1024.81
2019-03-26T05:25:11.536Z,1024.79
2019-03-26T05:26:11.527Z,1024.86
2019-03-26T05:27:11.510Z,1024.85
2019-03-26T05:28:11.499Z,1024.82
2019-03-26T05:29:11.512Z,1024.79
2019-03-26T05:30:11.476Z,1024.79
2019-03-26T05:31:11.469Z,1024.78
2019-03-26T05:32:11.465Z,1024.80
2019-03-26T05:33:11.443Z,1024.82
2019-03-26T05:34:11.454Z,1024.81
2019-03-26T05:35:11.419Z,1024.86
2019-03-26T05:36:11.409Z,1024.87
2019-03-26T05:37:11.402Z,1024.81
2019-03-26T05:38:11.401Z,1024.84
2019-03-26T05:39:11.406Z,1024.85
2019-03-26T05:40:11.365Z,1024.82
2019-03-26T05:41:11.367Z,1024.82
2019-03-26T05:42:11.349Z,1024.79
2019-03-26T05:43:11.337Z,1024.76
2019-03-26T05:44:11.324Z,1024.79
2019-03-26T05:45:11.339Z,1024.76
2019-03-26T05:46:11.300Z,1024.79
2019-03-26T05:47:11.293Z,1024.75
2019-03-26T05:48:11.278Z,1024.73
2019-03-26T05:49:11.272Z,1024.75
2019-03-26T05:50:11.281Z,1024.78
2019-03-26T05:51:11.261Z,1024.75
2019-03-26T05:52:11.233Z,1024.81
2019-03-26T05:53:11.223Z,1024.80
2019-03-26T05:54:11.216Z,1024.80
2019-03-26T05:55:11.229Z,1024.78
2019-03-26T05:56:11.191Z,1024.77
2019-03-26T05:57:11.187Z,1024.81
2019-03-26T05:58:11.171Z,1024.82
2019-03-26T05:59:11.173Z,1024.84
2019-03-26T06:00:11.169Z,1024.84
2019-03-26T06:01:11.146Z,1024.81
2019-03-26T06:02:15.189Z,1024.81
2019-03-26T06:03:12.117Z,1024.90
2019-03-26T06:04:11.105Z,1024.91
2019-03-26T06:05:11.115Z,1024.90
2019-03-26T06:06:11.091Z,1024.87
2019-03-26T06:07:11.072Z,1024.92
2019-03-26T06:08:11.064Z,1024.92
2019-03-26T06:09:11.064Z,1024.93
2019-03-26T06:10:11.044Z,1024.91
2019-03-26T06:11:11.065Z,1024.92
2019-03-26T06:12:11.019Z,1024.92
2019-03-26T06:13:11.034Z,1024.95
2019-03-26T06:14:10.999Z,1024.92
2019-03-26T06:15:10.985Z,1024.94
2019-03-26T06:16:10.997Z,1024.94
2019-03-26T06:17:10.962Z,1024.94
2019-03-26T06:18:10.960Z,1024.99
2019-03-26T06:19:10.944Z,1025.00
2019-03-26T06:20:10.931Z,1025.03
2019-03-26T06:21:10.939Z,1025.06
2019-03-26T06:22:10.913Z,1025.07
2019-03-26T06:23:10.902Z,1025.15
2019-03-26T06:24:10.917Z,1025.16
2019-03-26T06:25:10.885Z,1025.13
2019-03-26T06:26:10.887Z,1025.14
2019-03-26T06:27:10.858Z,1025.15
2019-03-26T06:28:10.849Z,1025.10
2019-03-26T06:29:10.843Z,1025.16
2019-03-26T06:30:10.851Z,1025.14
2019-03-26T06:31:10.843Z,1025.13
2019-03-26T06:32:10.806Z,1025.14
2019-03-26T06:33:10.791Z,1025.16
2019-03-26T06:34:10.787Z,1025.11
2019-03-26T06:35:10.803Z,1025.10
2019-03-26T06:36:10.759Z,1025.13
2019-03-26T06:37:17.884Z,1025.19
2019-03-26T06:38:11.734Z,1025.12
2019-03-26T06:39:10.727Z,1025.17
2019-03-26T06:40:10.716Z,1025.21
2019-03-26T06:41:10.736Z,1025.20
2019-03-26T06:42:10.718Z,1025.16
2019-03-26T06:43:10.686Z,1025.19
2019-03-26T06:44:10.674Z,1025.20
2019-03-26T06:45:10.662Z,1025.15
2019-03-26T06:46:10.650Z,1025.16
2019-03-26T06:47:10.670Z,1025.22
2019-03-26T06:48:10.632Z,1025.25
2019-03-26T06:49:10.617Z,1025.26
2019-03-26T06:50:10.624Z,1025.30
2019-03-26T06:51:10.598Z,1025.31
2019-03-26T06:52:10.590Z,1025.32
2019-03-26T06:53:10.611Z,1025.38
2019-03-26T06:54:10.600Z,1025.30
2019-03-26T06:55:10.553Z,1025.29
2019-03-26T06:56:10.540Z,1025.36
2019-03-26T06:57:10.530Z,1025.31
2019-03-26T06:58:10.539Z,1025.29
2019-03-26T06:59:10.558Z,1025.33
2019-03-26T07:00:10.500Z,1025.37
2019-03-26T07:01:10.488Z,1025.35
2019-03-26T07:02:10.479Z,1025.38
2019-03-26T07:03:10.493Z,1025.40
2019-03-26T07:04:10.456Z,1025.41
2019-03-26T07:05:10.445Z,1025.44
2019-03-26T07:06:10.444Z,1025.43
2019-03-26T07:07:10.423Z,1025.40
2019-03-26T07:08:10.417Z,1025.42
2019-03-26T07:09:10.423Z,1025.44
2019-03-26T07:10:10.396Z,1025.44
2019-03-26T07:11:10.434Z,1025.45
2019-03-26T07:12:10.372Z,1025.47
2019-03-26T07:13:10.362Z,1025.51
2019-03-26T07:14:10.367Z,1025.47
2019-03-26T07:15:10.343Z,1025.47
2019-03-26T07:16:10.333Z,1025.58
2019-03-26T07:17:10.315Z,1025.53
2019-03-26T07:18:10.304Z,1025.54
2019-03-26T07:19:10.311Z,1025.57
2019-03-26T07:20:10.288Z,1025.59
2019-03-26T07:21:10.285Z,1025.58
2019-03-26T07:22:10.260Z,1025.66
2019-03-26T07:23:10.311Z,1025.65
2019-03-26T07:24:10.255Z,1025.67
2019-03-26T07:25:10.226Z,1025.65
2019-03-26T07:26:10.215Z,1025.68
2019-03-26T07:27:10.213Z,1025.68
2019-03-26T07:28:10.204Z,1025.67
2019-03-26T07:29:10.213Z,1025.67
2019-03-26T07:30:10.233Z,1025.62
2019-03-26T07:31:10.160Z,1025.68
2019-03-26T07:32:10.269Z,1025.65
2019-03-26T07:33:10.238Z,1025.68
2019-03-26T07:34:10.130Z,1025.65
2019-03-26T07:35:10.278Z,1025.65
2019-03-26T07:36:10.106Z,1025.68
2019-03-26T07:37:10.098Z,1025.77
2019-03-26T07:38:10.095Z,1025.77
2019-03-26T07:39:10.085Z,1025.81
2019-03-26T07:40:10.093Z,1025.80
2019-03-26T07:41:10.100Z,1025.83
2019-03-26T07:42:10.114Z,1025.86
2019-03-26T07:43:10.138Z,1025.79
2019-03-26T07:44:10.082Z,1025.86
2019-03-26T07:45:10.072Z,1025.83
2019-03-26T07:46:10.140Z,1025.87
2019-03-26T07:47:09.988Z,1025.89
2019-03-26T07:48:09.976Z,1025.86
2019-03-26T07:49:09.968Z,1025.84
2019-03-26T07:50:10.014Z,1025.86
2019-03-26T07:51:09.947Z,1025.88
2019-03-26T07:52:09.933Z,1025.89
2019-03-26T07:53:09.923Z,1025.87
2019-03-26T07:54:09.914Z,1025.82
2019-03-26T07:55:09.900Z,1025.83
2019-03-26T07:56:09.907Z,1025.77
2019-03-26T07:57:09.893Z,1025.79
2019-03-26T07:58:09.954Z,1025.80
2019-03-26T07:59:09.860Z,1025.77
2019-03-26T08:00:09.846Z,1025.78
2019-03-26T08:01:09.857Z,1025.79
2019-03-26T08:02:09.831Z,1025.81
2019-03-26T08:03:09.815Z,1025.76
2019-03-26T08:04:12.430Z,1025.76
2019-03-26T08:05:09.792Z,1025.78
2019-03-26T08:06:09.802Z,1025.81
2019-03-26T08:07:09.772Z,1025.84
2019-03-26T08:08:09.760Z,1025.79
2019-03-26T08:09:09.799Z,1025.85
2019-03-26T08:10:09.738Z,1025.81
2019-03-26T08:11:09.747Z,1025.82
2019-03-26T08:12:09.719Z,1025.87
2019-03-26T08:13:09.720Z,1025.84
2019-03-26T08:14:09.701Z,1025.84
2019-03-26T08:15:09.694Z,1025.80
2019-03-26T08:16:09.730Z,1025.88
2019-03-26T08:17:09.660Z,1025.84
2019-03-26T08:18:09.725Z,1025.83
2019-03-26T08:19:09.643Z,1025.79
2019-03-26T08:20:12.447Z,1025.84
2019-03-26T08:21:09.618Z,1025.86
2019-03-26T08:22:09.634Z,1025.76
2019-03-26T08:23:09.592Z,1025.81
2019-03-26T08:24:09.581Z,1025.80
2019-03-26T08:25:09.576Z,1025.83
2019-03-26T08:26:09.561Z,1025.81
2019-03-26T08:27:09.572Z,1025.79
2019-03-26T08:28:09.569Z,1025.82
2019-03-26T08:29:09.538Z,1025.80
2019-03-26T08:30:09.526Z,1025.81
2019-03-26T08:31:09.509Z,1025.80
2019-03-26T08:32:09.524Z,1025.81
2019-03-26T08:33:09.482Z,1025.86
2019-03-26T08:34:09.501Z,1025.84
2019-03-26T08:35:16.487Z,1025.79
2019-03-26T08:36:09.471Z,1025.77
2019-03-26T08:37:09.444Z,1025.82
2019-03-26T08:38:13.096Z,1025.78
2019-03-26T08:39:09.418Z,1025.77
2019-03-26T08:40:09.416Z,1025.73
2019-03-26T08:41:09.399Z,1025.70
2019-03-26T08:42:09.392Z,1025.69
2019-03-26T08:43:09.402Z,1025.69
2019-03-26T08:44:09.365Z,1025.70
2019-03-26T08:45:09.355Z,1025.69
2019-03-26T08:46:09.353Z,1025.65
2019-03-26T08:47:09.340Z,1025.66
2019-03-26T08:48:09.364Z,1025.71
2019-03-26T08:49:09.322Z,1025.65
2019-03-26T08:50:09.305Z,1025.69
2019-03-26T08:51:09.292Z,1025.67
2019-03-26T08:52:09.277Z,1025.71
2019-03-26T08:53:09.288Z,1025.68
2019-03-26T08:54:09.258Z,1025.70
2019-03-26T08:55:09.246Z,1025.69
2019-03-26T08:56:09.237Z,1025.70
2019-03-26T08:57:09.227Z,1025.74
2019-03-26T08:58:09.236Z,1025.72
2019-03-26T08:59:09.208Z,1025.73
2019-03-26T09:00:09.190Z,1025.75
2019-03-26T09:01:09.182Z,1025.76
2019-03-26T09:02:09.167Z,1025.73
2019-03-26T09:03:09.154Z,1025.72
2019-03-26T09:04:09.162Z,1025.62
2019-03-26T09:05:09.131Z,1025.60
2019-03-26T09:06:09.122Z,1025.71
2019-03-26T09:07:11.052Z,1025.62
2019-03-26T09:08:09.105Z,1025.65
2019-03-26T09:09:09.194Z,1025.66
2019-03-26T09:10:09.081Z,1025.61
2019-03-26T09:11:09.069Z,1025.64
2019-03-26T09:12:09.058Z,1025.64
2019-03-26T09:13:09.045Z,1025.64
2019-03-26T09:14:09.053Z,1025.64
2019-03-26T09:15:09.026Z,1025.59
2019-03-26T09:16:09.021Z,1025.67
2019-03-26T09:17:09.004Z,1025.61
2019-03-26T09:18:08.993Z,1025.61
2019-03-26T09:19:09.004Z,1025.64
2019-03-26T09:20:08.969Z,1025.56
2019-03-26T09:21:08.964Z,1025.58
2019-03-26T09:22:08.961Z,1025.63
2019-03-26T09:23:12.071Z,1025.61
2019-03-26T09:24:08.928Z,1025.60
2019-03-26T09:25:08.933Z,1025.63
2019-03-26T09:26:08.903Z,1025.61
2019-03-26T09:27:08.899Z,1025.60
2019-03-26T09:28:08.881Z,1025.66
2019-03-26T09:29:08.895Z,1025.65
2019-03-26T09:30:08.866Z,1025.68
2019-03-26T09:31:08.860Z,1025.58
2019-03-26T09:32:08.844Z,1025.61
2019-03-26T09:33:08.830Z,1025.57
2019-03-26T09:34:10.018Z,1025.62
2019-03-26T09:35:08.804Z,1025.68
2019-03-26T09:36:08.869Z,1025.61
2019-03-26T09:37:08.785Z,1025.62
2019-03-26T09:38:08.775Z,1025.69
2019-03-26T09:39:08.779Z,1025.61
2019-03-26T09:40:08.795Z,1025.60
2019-03-26T09:41:08.744Z,1025.65
2019-03-26T09:42:08.729Z,1025.70
2019-03-26T09:44:15.989Z,1025.69
2019-03-26T09:45:08.716Z,1025.76
2019-03-26T09:46:08.689Z,1025.74
2019-03-26T09:47:16.231Z,1025.74
2019-03-26T09:48:09.683Z,1025.75
2019-03-26T09:49:08.660Z,1025.74
2019-03-26T09:50:08.661Z,1025.71
2019-03-26T09:51:10.833Z,1025.78
2019-03-26T09:52:08.624Z,1025.75
2019-03-26T09:53:08.618Z,1025.70
2019-03-26T09:54:08.603Z,1025.86
2019-03-26T09:55:08.625Z,1025.80
2019-03-26T09:56:08.602Z,1025.89
2019-03-26T09:57:08.569Z,1025.74
2019-03-26T09:58:08.558Z,1025.90
2019-03-26T09:59:08.554Z,1025.85
2019-03-26T10:00:08.538Z,1025.71
2019-03-26T10:01:08.546Z,1025.61
2019-03-26T10:02:08.518Z,1025.79
2019-03-26T10:03:08.517Z,1025.77
2019-03-26T10:04:08.494Z,1025.68
2019-03-26T10:05:08.477Z,1025.55
2019-03-26T10:06:08.499Z,1025.62
2019-03-26T10:07:20.497Z,1025.59
2019-03-26T10:08:09.444Z,1025.60
2019-03-26T10:09:08.433Z,1025.57
2019-03-26T10:10:08.424Z,1025.65
2019-03-26T10:11:08.432Z,1025.57
2019-03-26T10:12:08.415Z,1025.60
2019-03-26T10:13:08.391Z,1025.67
2019-03-26T10:14:08.393Z,1025.71
2019-03-26T10:15:08.369Z,1025.71
2019-03-26T10:16:08.381Z,1025.63
2019-03-26T10:17:08.351Z,1025.67
2019-03-26T10:18:08.346Z,1025.70
2019-03-26T10:19:08.325Z,1025.64
2019-03-26T10:20:08.311Z,1025.60
2019-03-26T10:21:08.314Z,1025.63
2019-03-26T10:22:08.335Z,1025.62
2019-03-26T10:23:08.278Z,1025.65
2019-03-26T10:24:08.272Z,1025.64
2019-03-26T10:25:10.864Z,1025.72
2019-03-26T10:26:08.249Z,1025.70
2019-03-26T10:27:08.311Z,1025.77
2019-03-26T10:28:08.226Z,1025.75
2019-03-26T10:29:24.028Z,1025.68
2019-03-26T10:30:09.211Z,1025.72
2019-03-26T10:31:08.189Z,1025.72
2019-03-26T10:32:08.216Z,1025.68
2019-03-26T10:33:08.168Z,1025.75
2019-03-26T10:34:08.160Z,1025.69
2019-03-26T10:35:08.153Z,1025.69
2019-03-26T10:36:08.136Z,1025.63
2019-03-26T10:37:08.148Z,1025.62
2019-03-26T10:38:08.117Z,1025.66
2019-03-26T10:39:08.107Z,1025.69
2019-03-26T10:40:08.099Z,1025.73
2019-03-26T10:41:08.085Z,1025.77
2019-03-26T10:42:08.111Z,1025.74
2019-03-26T10:43:08.078Z,1025.79
2019-03-26T10:44:08.046Z,1025.79
2019-03-26T10:45:08.047Z,1025.84
2019-03-26T10:46:08.034Z,1025.81
2019-03-26T10:47:08.019Z,1025.80
2019-03-26T10:48:08.027Z,1025.77
2019-03-26T10:49:07.998Z,1025.80
2019-03-26T10:50:07.990Z,1025.79
2019-03-26T10:51:07.973Z,1025.81
2019-03-26T10:52:07.970Z,1025.83
2019-03-26T10:53:07.978Z,1025.74
2019-03-26T10:54:07.942Z,1025.78
2019-03-26T10:55:07.939Z,1025.74
2019-03-26T10:56:07.923Z,1025.80
2019-03-26T10:57:07.917Z,1025.70
2019-03-26T10:58:07.920Z,1025.77
2019-03-26T10:59:07.892Z,1025.72
2019-03-26T11:00:07.881Z,1025.73
2019-03-26T11:01:07.864Z,1025.68
2019-03-26T11:02:07.852Z,1025.74
2019-03-26T11:03:07.864Z,1025.71
2019-03-26T11:04:07.983Z,1025.70
2019-03-26T11:05:07.823Z,1025.70
2019-03-26T11:06:07.816Z,1025.70
2019-03-26T11:07:07.801Z,1025.69
2019-03-26T11:08:07.807Z,1025.68
2019-03-26T11:09:20.012Z,1025.67
2019-03-26T11:10:08.771Z,1025.58
2019-03-26T11:11:07.755Z,1025.64
2019-03-26T11:12:07.751Z,1025.62
2019-03-26T11:13:07.751Z,1025.52
2019-03-26T11:14:07.725Z,1025.56
2019-03-26T11:15:07.715Z,1025.52
2019-03-26T11:16:07.703Z,1025.57
2019-03-26T11:17:07.703Z,1025.50
2019-03-26T11:18:07.703Z,1025.55
2019-03-26T11:19:07.667Z,1025.53
2019-03-26T11:20:07.656Z,1025.48
2019-03-26T11:21:07.657Z,1025.57
2019-03-26T11:22:07.635Z,1025.48
2019-03-26T11:23:07.625Z,1025.53
2019-03-26T11:24:07.636Z,1025.49
2019-03-26T11:25:07.598Z,1025.50
2019-03-26T11:26:07.593Z,1025.49
2019-03-26T11:27:15.120Z,1025.49
2019-03-26T11:28:07.567Z,1025.56
2019-03-26T11:29:07.579Z,1025.50
2019-03-26T11:30:07.548Z,1025.53
2019-03-26T11:31:07.539Z,1025.54
2019-03-26T11:32:07.525Z,1025.61
2019-03-26T11:33:07.510Z,1025.59
2019-03-26T11:34:07.519Z,1025.60
2019-03-26T11:35:07.490Z,1025.59
2019-03-26T11:36:07.488Z,1025.59
2019-03-26T11:37:07.467Z,1025.54
2019-03-26T11:38:07.467Z,1025.50
2019-03-26T11:39:07.474Z,1025.50
2019-03-26T11:40:07.439Z,1025.57
2019-03-26T11:41:07.431Z,1025.51
2019-03-26T11:42:07.424Z,1025.47
2019-03-26T11:43:07.404Z,1025.52
2019-03-26T11:44:07.495Z,1025.43
2019-03-26T11:45:07.383Z,1025.40
2019-03-26T11:46:07.389Z,1025.43
2019-03-26T11:47:07.359Z,1025.53
2019-03-26T11:48:07.396Z,1025.50
2019-03-26T11:49:07.345Z,1025.41
2019-03-26T11:50:07.370Z,1025.46
2019-03-26T11:51:07.314Z,1025.38
2019-03-26T11:52:07.303Z,1025.36
2019-03-26T11:53:07.295Z,1025.40
2019-03-26T11:54:07.326Z,1025.35
2019-03-26T11:55:07.317Z,1025.37
2019-03-26T11:56:07.265Z,1025.36
2019-03-26T11:57:07.324Z,1025.36
2019-03-26T11:58:07.240Z,1025.33
2019-03-26T11:59:07.233Z,1025.31
2019-03-26T12:00:07.322Z,1025.36
2019-03-26T12:01:07.205Z,1025.35
2019-03-26T12:02:07.198Z,1025.33
2019-03-26T12:03:07.321Z,1025.32
2019-03-26T12:04:07.309Z,1025.22
2019-03-26T12:05:07.184Z,1025.32
2019-03-26T12:06:07.158Z,1025.31